CTV145 WIHH-WADD
Flight info
| Callsign | CTV145 |
|---|---|
| Flight time | 1h 48m |
| Altitude | 23000 |
| Route | WIHH CA1Z CA ANY DCT BA DCT MOVMO MOVM2F WADD |
| Aircraft | A330/L-SDE3GHIJ2J3J5M1RVWXYZ/LB2D1 |
Departure
| Time | 2026-04-13 23:57 |
|---|---|
| Airport | Halim Perdanakusuma International Airport (WIHH) |
Arrival
| Time | 2026-04-14 01:45 |
|---|---|
| Airport | Denpasar I Gusti Ngurah Rai International Airport (WADD) |
| Time | Latitude | Longitude | Altitude | Speed | Heading |
|---|---|---|---|---|---|
| 2026-04-13 23:30 | -6.26564 | 106.88745 | 91 ft | 0 kts | 342° |
| 2026-04-13 23:46 | -6.26587 | 106.88752 | 92 ft | 3 kts | 352° |
| 2026-04-13 23:46 | -6.26598 | 106.88751 | 92 ft | 3 kts | 41° |
| 2026-04-13 23:46 | -6.26604 | 106.88744 | 91 ft | 0 kts | 73° |
| 2026-04-13 23:50 | -6.26600 | 106.88756 | 90 ft | 4 kts | 73° |
| 2026-04-13 23:50 | -6.26583 | 106.88797 | 92 ft | 9 kts | 66° |
| 2026-04-13 23:51 | -6.26552 | 106.88869 | 91 ft | 13 kts | 66° |
| 2026-04-13 23:51 | -6.26508 | 106.88971 | 92 ft | 18 kts | 66° |
| 2026-04-13 23:51 | -6.26514 | 106.89069 | 94 ft | 12 kts | 111° |
| 2026-04-13 23:51 | -6.26541 | 106.89142 | 92 ft | 8 kts | 110° |
| 2026-04-13 23:52 | -6.26542 | 106.89145 | 92 ft | 0 kts | 110° |
| 2026-04-13 23:52 | -6.26544 | 106.89151 | 94 ft | 2 kts | 110° |
| 2026-04-13 23:52 | -6.26551 | 106.89169 | 95 ft | 6 kts | 110° |
| 2026-04-13 23:53 | -6.26574 | 106.89235 | 92 ft | 14 kts | 108° |
| 2026-04-13 23:53 | -6.26564 | 106.89323 | 94 ft | 14 kts | 66° |
| 2026-04-13 23:53 | -6.26516 | 106.89430 | 92 ft | 21 kts | 65° |
| 2026-04-13 23:53 | -6.26446 | 106.89585 | 92 ft | 25 kts | 65° |
| 2026-04-13 23:54 | -6.26376 | 106.89740 | 93 ft | 24 kts | 65° |
| 2026-04-13 23:54 | -6.26309 | 106.89887 | 95 ft | 23 kts | 64° |
| 2026-04-13 23:54 | -6.26242 | 106.90027 | 95 ft | 22 kts | 64° |
| 2026-04-13 23:54 | -6.26177 | 106.90163 | 96 ft | 21 kts | 66° |
| 2026-04-13 23:55 | -6.26107 | 106.90262 | 96 ft | 12 kts | 18° |
| 2026-04-13 23:55 | -6.26083 | 106.90287 | 97 ft | 2 kts | 137° |
| 2026-04-13 23:55 | -6.26103 | 106.90294 | 96 ft | 2 kts | 208° |
| 2026-04-13 23:55 | -6.26129 | 106.90265 | 97 ft | 9 kts | 240° |
| 2026-04-13 23:56 | -6.26164 | 106.90188 | 98 ft | 16 kts | 246° |
| 2026-04-13 23:56 | -6.26294 | 106.89905 | 94 ft | 77 kts | 245° |
| 2026-04-13 23:56 | -6.26619 | 106.89199 | 95 ft | 145 kts | 245° |
| 2026-04-13 23:56 | -6.27086 | 106.88177 | 531 ft | 158 kts | 245° |
| 2026-04-13 23:57 | -6.27515 | 106.87226 | 1376 ft | 143 kts | 245° |
| 2026-04-13 23:57 | -6.27961 | 106.86228 | 1588 ft | 186 kts | 245° |
| 2026-04-13 23:57 | -6.28561 | 106.84896 | 1648 ft | 223 kts | 245° |
| 2026-04-13 23:57 | -6.29225 | 106.83422 | 2004 ft | 245 kts | 245° |
| 2026-04-13 23:58 | -6.29987 | 106.81792 | 2399 ft | 262 kts | 240° |
| 2026-04-13 23:58 | -6.31023 | 106.80298 | 2765 ft | 268 kts | 227° |
| 2026-04-13 23:58 | -6.32436 | 106.79053 | 3313 ft | 263 kts | 208° |
| 2026-04-13 23:58 | -6.34078 | 106.78452 | 4290 ft | 250 kts | 186° |
| 2026-04-13 23:59 | -6.35791 | 106.78612 | 4918 ft | 248 kts | 162° |
| 2026-04-13 23:59 | -6.37373 | 106.79269 | 5561 ft | 246 kts | 150° |
| 2026-04-13 23:59 | -6.38766 | 106.80265 | 6178 ft | 247 kts | 135° |
| 2026-04-13 23:59 | -6.39682 | 106.81776 | 6474 ft | 263 kts | 112° |
| 2026-04-14 00:00 | -6.40373 | 106.83527 | 6816 ft | 274 kts | 113° |
| 2026-04-14 00:00 | -6.41145 | 106.85296 | 7322 ft | 279 kts | 114° |
| 2026-04-14 00:00 | -6.41732 | 106.87162 | 7860 ft | 282 kts | 103° |
| 2026-04-14 00:00 | -6.42082 | 106.89108 | 8426 ft | 284 kts | 100° |
| 2026-04-14 00:01 | -6.42404 | 106.91081 | 8987 ft | 287 kts | 101° |
| 2026-04-14 00:01 | -6.42736 | 106.93047 | 9545 ft | 289 kts | 101° |
| 2026-04-14 00:01 | -6.43085 | 106.95044 | 10079 ft | 291 kts | 101° |
| 2026-04-14 00:01 | -6.43452 | 106.97093 | 10362 ft | 304 kts | 101° |
| 2026-04-14 00:02 | -6.43842 | 106.99228 | 10579 ft | 318 kts | 102° |
| 2026-04-14 00:02 | -6.44351 | 107.01437 | 10791 ft | 330 kts | 106° |
| 2026-04-14 00:02 | -6.44975 | 107.03708 | 11014 ft | 343 kts | 107° |
| 2026-04-14 00:02 | -6.45642 | 107.06056 | 11209 ft | 354 kts | 107° |
| 2026-04-14 00:03 | -6.46331 | 107.08474 | 11390 ft | 365 kts | 107° |
| 2026-04-14 00:03 | -6.47037 | 107.10958 | 11572 ft | 375 kts | 107° |
| 2026-04-14 00:03 | -6.47761 | 107.13505 | 11735 ft | 384 kts | 107° |
| 2026-04-14 00:03 | -6.48500 | 107.16114 | 11894 ft | 392 kts | 107° |
| 2026-04-14 00:04 | -6.49254 | 107.18775 | 12044 ft | 400 kts | 107° |
| 2026-04-14 00:04 | -6.50024 | 107.21493 | 12211 ft | 406 kts | 107° |
| 2026-04-14 00:04 | -6.50801 | 107.24239 | 12467 ft | 410 kts | 107° |
| 2026-04-14 00:04 | -6.51583 | 107.27003 | 12758 ft | 412 kts | 107° |
| 2026-04-14 00:05 | -6.52370 | 107.29787 | 13061 ft | 415 kts | 107° |
| 2026-04-14 00:05 | -6.53161 | 107.32583 | 13378 ft | 417 kts | 107° |
| 2026-04-14 00:05 | -6.53918 | 107.35355 | 13706 ft | 419 kts | 103° |
| 2026-04-14 00:05 | -6.54485 | 107.38246 | 14004 ft | 421 kts | 101° |
| 2026-04-14 00:06 | -6.54979 | 107.41153 | 14287 ft | 423 kts | 99° |
| 2026-04-14 00:06 | -6.55421 | 107.44083 | 14600 ft | 424 kts | 99° |
| 2026-04-14 00:06 | -6.55839 | 107.47028 | 14904 ft | 426 kts | 98° |
| 2026-04-14 00:06 | -6.56252 | 107.49984 | 15200 ft | 428 kts | 98° |
| 2026-04-14 00:07 | -6.56668 | 107.52951 | 15493 ft | 429 kts | 98° |
| 2026-04-14 00:07 | -6.57093 | 107.55941 | 15779 ft | 431 kts | 98° |
| 2026-04-14 00:07 | -6.57524 | 107.58930 | 16072 ft | 433 kts | 99° |
| 2026-04-14 00:07 | -6.57960 | 107.61937 | 16365 ft | 435 kts | 99° |
| 2026-04-14 00:08 | -6.58400 | 107.64951 | 16645 ft | 437 kts | 99° |
| 2026-04-14 00:08 | -6.58836 | 107.67938 | 16910 ft | 438 kts | 99° |
| 2026-04-14 00:08 | -6.59280 | 107.70978 | 17174 ft | 440 kts | 98° |
| 2026-04-14 00:08 | -6.59727 | 107.74039 | 17430 ft | 442 kts | 98° |
| 2026-04-14 00:09 | -6.60174 | 107.77098 | 17694 ft | 443 kts | 98° |
| 2026-04-14 00:09 | -6.60621 | 107.80166 | 17951 ft | 444 kts | 98° |
| 2026-04-14 00:09 | -6.61070 | 107.83248 | 18174 ft | 446 kts | 98° |
| 2026-04-14 00:09 | -6.61520 | 107.86343 | 18362 ft | 448 kts | 98° |
| 2026-04-14 00:10 | -6.61973 | 107.89457 | 18574 ft | 449 kts | 98° |
| 2026-04-14 00:10 | -6.62424 | 107.92561 | 18772 ft | 450 kts | 98° |
| 2026-04-14 00:10 | -6.62873 | 107.95648 | 18952 ft | 451 kts | 98° |
| 2026-04-14 00:10 | -6.63327 | 107.98776 | 19155 ft | 452 kts | 98° |
| 2026-04-14 00:11 | -6.63782 | 108.01907 | 19328 ft | 454 kts | 98° |
| 2026-04-14 00:11 | -6.64238 | 108.05050 | 19494 ft | 455 kts | 98° |
| 2026-04-14 00:11 | -6.64697 | 108.08213 | 19695 ft | 456 kts | 98° |
| 2026-04-14 00:11 | -6.65155 | 108.11370 | 19867 ft | 457 kts | 98° |
| 2026-04-14 00:12 | -6.65615 | 108.14540 | 20034 ft | 458 kts | 98° |
| 2026-04-14 00:12 | -6.66076 | 108.17724 | 20201 ft | 459 kts | 98° |
| 2026-04-14 00:12 | -6.66538 | 108.20913 | 20365 ft | 461 kts | 98° |
| 2026-04-14 00:12 | -6.66999 | 108.24101 | 20534 ft | 462 kts | 98° |
| 2026-04-14 00:13 | -6.67462 | 108.27300 | 20706 ft | 463 kts | 98° |
| 2026-04-14 00:13 | -6.67921 | 108.30470 | 20871 ft | 464 kts | 98° |
| 2026-04-14 00:13 | -6.68385 | 108.33680 | 20950 ft | 464 kts | 98° |
| 2026-04-14 00:13 | -6.68850 | 108.36898 | 20955 ft | 465 kts | 98° |
| 2026-04-14 00:14 | -6.69314 | 108.40111 | 20957 ft | 465 kts | 98° |
| 2026-04-14 00:14 | -6.69779 | 108.43331 | 20956 ft | 465 kts | 98° |
| 2026-04-14 00:14 | -6.70244 | 108.46554 | 20951 ft | 465 kts | 98° |
| 2026-04-14 00:14 | -6.70709 | 108.49776 | 20952 ft | 465 kts | 98° |
| 2026-04-14 00:15 | -6.71172 | 108.52992 | 20954 ft | 465 kts | 98° |
| 2026-04-14 00:15 | -6.71636 | 108.56211 | 20954 ft | 465 kts | 98° |
| 2026-04-14 00:15 | -6.72100 | 108.59430 | 20953 ft | 465 kts | 98° |
| 2026-04-14 00:15 | -6.72563 | 108.62650 | 20945 ft | 465 kts | 98° |
| 2026-04-14 00:16 | -6.73026 | 108.65866 | 20949 ft | 465 kts | 98° |
| 2026-04-14 00:16 | -6.73483 | 108.69044 | 20948 ft | 465 kts | 98° |
| 2026-04-14 00:16 | -6.73945 | 108.72261 | 20941 ft | 465 kts | 98° |
| 2026-04-14 00:16 | -6.74410 | 108.75493 | 20941 ft | 465 kts | 98° |
| 2026-04-14 00:17 | -6.74873 | 108.78719 | 20943 ft | 465 kts | 98° |
| 2026-04-14 00:17 | -6.75335 | 108.81937 | 20943 ft | 465 kts | 98° |
| 2026-04-14 00:17 | -6.75797 | 108.85158 | 20938 ft | 465 kts | 98° |
| 2026-04-14 00:17 | -6.76259 | 108.88378 | 20942 ft | 465 kts | 98° |
| 2026-04-14 00:18 | -6.76721 | 108.91601 | 20942 ft | 465 kts | 98° |
| 2026-04-14 00:18 | -6.77182 | 108.94818 | 20949 ft | 465 kts | 98° |
| 2026-04-14 00:18 | -6.77643 | 108.98040 | 20947 ft | 465 kts | 98° |
| 2026-04-14 00:18 | -6.78104 | 109.01258 | 20944 ft | 465 kts | 98° |
| 2026-04-14 00:19 | -6.78565 | 109.04482 | 20945 ft | 465 kts | 98° |
| 2026-04-14 00:19 | -6.79020 | 109.07666 | 20943 ft | 465 kts | 98° |
| 2026-04-14 00:19 | -6.79482 | 109.10897 | 20943 ft | 465 kts | 98° |
| 2026-04-14 00:19 | -6.79942 | 109.14114 | 20937 ft | 465 kts | 98° |
| 2026-04-14 00:20 | -6.80402 | 109.17339 | 20938 ft | 465 kts | 98° |
| 2026-04-14 00:20 | -6.80861 | 109.20555 | 20938 ft | 465 kts | 98° |
| 2026-04-14 00:20 | -6.81321 | 109.23781 | 20938 ft | 465 kts | 98° |
| 2026-04-14 00:20 | -6.81782 | 109.27009 | 20932 ft | 465 kts | 98° |
| 2026-04-14 00:21 | -6.82240 | 109.30226 | 20932 ft | 465 kts | 98° |
| 2026-04-14 00:21 | -6.82700 | 109.33455 | 20932 ft | 465 kts | 98° |
| 2026-04-14 00:21 | -6.83158 | 109.36672 | 20933 ft | 465 kts | 98° |
| 2026-04-14 00:21 | -6.83611 | 109.39856 | 20927 ft | 465 kts | 98° |
| 2026-04-14 00:22 | -6.84070 | 109.43080 | 20927 ft | 465 kts | 98° |
| 2026-04-14 00:22 | -6.84528 | 109.46306 | 20927 ft | 465 kts | 98° |
| 2026-04-14 00:22 | -6.84986 | 109.49530 | 20927 ft | 465 kts | 98° |
| 2026-04-14 00:22 | -6.85445 | 109.52756 | 20927 ft | 465 kts | 98° |
| 2026-04-14 00:23 | -6.85902 | 109.55980 | 20921 ft | 465 kts | 98° |
| 2026-04-14 00:23 | -6.86361 | 109.59210 | 20922 ft | 465 kts | 98° |
| 2026-04-14 00:23 | -6.86813 | 109.62398 | 20924 ft | 465 kts | 98° |
| 2026-04-14 00:23 | -6.87269 | 109.65619 | 20921 ft | 465 kts | 98° |
| 2026-04-14 00:24 | -6.87727 | 109.68847 | 20939 ft | 465 kts | 98° |
| 2026-04-14 00:24 | -6.88183 | 109.72073 | 20938 ft | 465 kts | 98° |
| 2026-04-14 00:24 | -6.88639 | 109.75290 | 20938 ft | 465 kts | 98° |
| 2026-04-14 00:24 | -6.89095 | 109.78512 | 20938 ft | 465 kts | 98° |
| 2026-04-14 00:25 | -6.89552 | 109.81742 | 20931 ft | 465 kts | 98° |
| 2026-04-14 00:25 | -6.90004 | 109.84942 | 20932 ft | 464 kts | 98° |
| 2026-04-14 00:25 | -6.90459 | 109.88162 | 20932 ft | 464 kts | 98° |
| 2026-04-14 00:25 | -6.90913 | 109.91380 | 20932 ft | 464 kts | 98° |
| 2026-04-14 00:26 | -6.91366 | 109.94593 | 20924 ft | 464 kts | 98° |
| 2026-04-14 00:26 | -6.91820 | 109.97806 | 20924 ft | 464 kts | 98° |
| 2026-04-14 00:26 | -6.92272 | 110.01017 | 20923 ft | 464 kts | 98° |
| 2026-04-14 00:26 | -6.92725 | 110.04232 | 20923 ft | 464 kts | 98° |
| 2026-04-14 00:27 | -6.93179 | 110.07454 | 20917 ft | 464 kts | 98° |
| 2026-04-14 00:27 | -6.93631 | 110.10667 | 20916 ft | 464 kts | 98° |
| 2026-04-14 00:27 | -6.94084 | 110.13881 | 20917 ft | 464 kts | 98° |
| 2026-04-14 00:27 | -6.94537 | 110.17101 | 20914 ft | 464 kts | 98° |
| 2026-04-14 00:28 | -6.94987 | 110.20308 | 20914 ft | 464 kts | 98° |
| 2026-04-14 00:28 | -6.95434 | 110.23488 | 20910 ft | 464 kts | 98° |
| 2026-04-14 00:28 | -6.95886 | 110.26703 | 20911 ft | 464 kts | 98° |
| 2026-04-14 00:28 | -6.96337 | 110.29916 | 20910 ft | 464 kts | 98° |
| 2026-04-14 00:29 | -6.96788 | 110.33136 | 20915 ft | 464 kts | 98° |
| 2026-04-14 00:29 | -6.97257 | 110.36350 | 20908 ft | 464 kts | 101° |
| 2026-04-14 00:29 | -6.98037 | 110.39497 | 20914 ft | 463 kts | 105° |
| 2026-04-14 00:29 | -6.98947 | 110.42614 | 20911 ft | 464 kts | 107° |
| 2026-04-14 00:30 | -6.99890 | 110.45717 | 20912 ft | 464 kts | 107° |
| 2026-04-14 00:30 | -7.00845 | 110.48821 | 20908 ft | 464 kts | 107° |
| 2026-04-14 00:30 | -7.01803 | 110.51921 | 20911 ft | 464 kts | 107° |
| 2026-04-14 00:30 | -7.02766 | 110.55030 | 20910 ft | 465 kts | 107° |
| 2026-04-14 00:31 | -7.03731 | 110.58139 | 20904 ft | 465 kts | 107° |
| 2026-04-14 00:31 | -7.04694 | 110.61244 | 20907 ft | 464 kts | 107° |
| 2026-04-14 00:31 | -7.05656 | 110.64342 | 20904 ft | 465 kts | 107° |
| 2026-04-14 00:31 | -7.06621 | 110.67454 | 20905 ft | 465 kts | 107° |
| 2026-04-14 00:32 | -7.08535 | 110.73624 | 20904 ft | 465 kts | 107° |
| 2026-04-14 00:32 | -7.09500 | 110.76737 | 20908 ft | 465 kts | 107° |
| 2026-04-14 00:32 | -7.10464 | 110.79846 | 20905 ft | 465 kts | 107° |
| 2026-04-14 00:33 | -7.11429 | 110.82959 | 20906 ft | 466 kts | 107° |
| 2026-04-14 00:33 | -7.12392 | 110.86072 | 20907 ft | 466 kts | 107° |
| 2026-04-14 00:33 | -7.13018 | 110.89276 | 20905 ft | 467 kts | 94° |
| 2026-04-14 00:33 | -7.12902 | 110.92538 | 20982 ft | 468 kts | 82° |
| 2026-04-14 00:34 | -7.12177 | 110.95745 | 21163 ft | 469 kts | 74° |
| 2026-04-14 00:34 | -7.11225 | 110.98890 | 21356 ft | 470 kts | 73° |
| 2026-04-14 00:34 | -7.10240 | 111.02035 | 21523 ft | 471 kts | 72° |
| 2026-04-14 00:34 | -7.09265 | 111.05138 | 21696 ft | 472 kts | 72° |
| 2026-04-14 00:35 | -7.08592 | 111.07277 | 21813 ft | 473 kts | 73° |
| 2026-04-14 00:35 | -7.07271 | 111.11470 | 22079 ft | 473 kts | 72° |
| 2026-04-14 00:35 | -7.06609 | 111.13563 | 22191 ft | 474 kts | 72° |
| 2026-04-14 00:35 | -7.05603 | 111.16737 | 22376 ft | 475 kts | 73° |
| 2026-04-14 00:36 | -7.04253 | 111.20992 | 22571 ft | 478 kts | 72° |
| 2026-04-14 00:36 | -7.03583 | 111.23099 | 22710 ft | 478 kts | 73° |
| 2026-04-14 00:36 | -7.02741 | 111.26340 | 22855 ft | 479 kts | 80° |
| 2026-04-14 00:36 | -7.02403 | 111.29679 | 22906 ft | 479 kts | 90° |
| 2026-04-14 00:37 | -7.02733 | 111.33005 | 22917 ft | 478 kts | 103° |
| 2026-04-14 00:37 | -7.03692 | 111.36208 | 22917 ft | 478 kts | 110° |
| 2026-04-14 00:37 | -7.05242 | 111.40356 | 22914 ft | 478 kts | 111° |
| 2026-04-14 00:37 | -7.06054 | 111.42459 | 22917 ft | 479 kts | 111° |
| 2026-04-14 00:38 | -7.07263 | 111.45588 | 22911 ft | 479 kts | 111° |
| 2026-04-14 00:38 | -7.08457 | 111.48680 | 22916 ft | 479 kts | 111° |
| 2026-04-14 00:38 | -7.09662 | 111.51805 | 22910 ft | 479 kts | 111° |
| 2026-04-14 00:38 | -7.10867 | 111.54934 | 22914 ft | 479 kts | 111° |
| 2026-04-14 00:39 | -7.12069 | 111.58058 | 22918 ft | 479 kts | 111° |
| 2026-04-14 00:39 | -7.13275 | 111.61193 | 22915 ft | 479 kts | 111° |
| 2026-04-14 00:39 | -7.14480 | 111.64328 | 22919 ft | 479 kts | 111° |
| 2026-04-14 00:39 | -7.15683 | 111.67458 | 22916 ft | 479 kts | 111° |
| 2026-04-14 00:40 | -7.16889 | 111.70595 | 22917 ft | 479 kts | 111° |
| 2026-04-14 00:40 | -7.18075 | 111.73684 | 22921 ft | 479 kts | 111° |
| 2026-04-14 00:40 | -7.19277 | 111.76814 | 22914 ft | 478 kts | 111° |
| 2026-04-14 00:40 | -7.20478 | 111.79941 | 22917 ft | 479 kts | 111° |
| 2026-04-14 00:41 | -7.21678 | 111.83069 | 22920 ft | 479 kts | 111° |
| 2026-04-14 00:41 | -7.22878 | 111.86194 | 22927 ft | 479 kts | 111° |
| 2026-04-14 00:41 | -7.24081 | 111.89330 | 22920 ft | 479 kts | 111° |
| 2026-04-14 00:41 | -7.25282 | 111.92461 | 22918 ft | 479 kts | 111° |
| 2026-04-14 00:42 | -7.26483 | 111.95592 | 22914 ft | 479 kts | 111° |
| 2026-04-14 00:42 | -7.27684 | 111.98726 | 22921 ft | 479 kts | 111° |
| 2026-04-14 00:42 | -7.28884 | 112.01855 | 22917 ft | 479 kts | 111° |
| 2026-04-14 00:42 | -7.30084 | 112.04987 | 22920 ft | 479 kts | 111° |
| 2026-04-14 00:43 | -7.31284 | 112.08119 | 22921 ft | 479 kts | 111° |
| 2026-04-14 00:43 | -7.32484 | 112.11252 | 22913 ft | 479 kts | 111° |
| 2026-04-14 00:43 | -7.33682 | 112.14379 | 22914 ft | 479 kts | 111° |
| 2026-04-14 00:43 | -7.34881 | 112.17512 | 22912 ft | 480 kts | 111° |
| 2026-04-14 00:44 | -7.36069 | 112.20615 | 22919 ft | 480 kts | 111° |
| 2026-04-14 00:44 | -7.37271 | 112.23756 | 22924 ft | 480 kts | 111° |
| 2026-04-14 00:44 | -7.38472 | 112.26896 | 22918 ft | 480 kts | 111° |
| 2026-04-14 00:44 | -7.39675 | 112.30041 | 22921 ft | 480 kts | 111° |
| 2026-04-14 00:45 | -7.40877 | 112.33182 | 22917 ft | 480 kts | 111° |
| 2026-04-14 00:45 | -7.42077 | 112.36322 | 22923 ft | 480 kts | 111° |
| 2026-04-14 00:45 | -7.43276 | 112.39459 | 22926 ft | 480 kts | 111° |
| 2026-04-14 00:45 | -7.44475 | 112.42597 | 22926 ft | 480 kts | 111° |
| 2026-04-14 00:46 | -7.45675 | 112.45735 | 22927 ft | 480 kts | 111° |
| 2026-04-14 00:46 | -7.46874 | 112.48874 | 22928 ft | 480 kts | 111° |
| 2026-04-14 00:46 | -7.48071 | 112.52011 | 22926 ft | 480 kts | 111° |
| 2026-04-14 00:46 | -7.49269 | 112.55149 | 22930 ft | 480 kts | 111° |
| 2026-04-14 00:47 | -7.50469 | 112.58292 | 22935 ft | 480 kts | 111° |
| 2026-04-14 00:47 | -7.51667 | 112.61431 | 22934 ft | 480 kts | 111° |
| 2026-04-14 00:47 | -7.52848 | 112.64527 | 22938 ft | 480 kts | 111° |
| 2026-04-14 00:47 | -7.54045 | 112.67666 | 22932 ft | 480 kts | 111° |
| 2026-04-14 00:48 | -7.55245 | 112.70811 | 22927 ft | 480 kts | 111° |
| 2026-04-14 00:48 | -7.56442 | 112.73951 | 22934 ft | 480 kts | 111° |
| 2026-04-14 00:48 | -7.57641 | 112.77098 | 22944 ft | 480 kts | 111° |
| 2026-04-14 00:48 | -7.58843 | 112.80253 | 22942 ft | 480 kts | 111° |
| 2026-04-14 00:49 | -7.60037 | 112.83388 | 22942 ft | 479 kts | 111° |
| 2026-04-14 00:49 | -7.61218 | 112.86487 | 22929 ft | 479 kts | 111° |
| 2026-04-14 00:49 | -7.62410 | 112.89617 | 22933 ft | 479 kts | 111° |
| 2026-04-14 00:49 | -7.63602 | 112.92751 | 22933 ft | 479 kts | 111° |
| 2026-04-14 00:50 | -7.64794 | 112.95883 | 22935 ft | 479 kts | 111° |
| 2026-04-14 00:50 | -7.65993 | 112.99034 | 22926 ft | 479 kts | 111° |
| 2026-04-14 00:50 | -7.67184 | 113.02165 | 22886 ft | 477 kts | 111° |
| 2026-04-14 00:50 | -7.68368 | 113.05278 | 22290 ft | 474 kts | 111° |
| 2026-04-14 00:51 | -7.69545 | 113.08373 | 21993 ft | 473 kts | 111° |
| 2026-04-14 00:51 | -7.70726 | 113.11480 | 21737 ft | 475 kts | 111° |
| 2026-04-14 00:51 | -7.71909 | 113.14594 | 21499 ft | 473 kts | 111° |
| 2026-04-14 00:51 | -7.73085 | 113.17690 | 21254 ft | 472 kts | 111° |
| 2026-04-14 00:52 | -7.74256 | 113.20772 | 21018 ft | 471 kts | 111° |
| 2026-04-14 00:52 | -7.75425 | 113.23850 | 20775 ft | 469 kts | 111° |
| 2026-04-14 00:52 | -7.76576 | 113.26882 | 20543 ft | 468 kts | 111° |
| 2026-04-14 00:52 | -7.77738 | 113.29943 | 20307 ft | 466 kts | 111° |
| 2026-04-14 00:53 | -7.78894 | 113.32989 | 20074 ft | 466 kts | 111° |
| 2026-04-14 00:53 | -7.80048 | 113.36032 | 19843 ft | 464 kts | 111° |
| 2026-04-14 00:53 | -7.81202 | 113.39074 | 19629 ft | 463 kts | 111° |
| 2026-04-14 00:53 | -7.82350 | 113.42102 | 19403 ft | 462 kts | 111° |
| 2026-04-14 00:54 | -7.83499 | 113.45132 | 19173 ft | 461 kts | 111° |
| 2026-04-14 00:54 | -7.84642 | 113.48148 | 18941 ft | 460 kts | 111° |
| 2026-04-14 00:54 | -7.85785 | 113.51163 | 18733 ft | 459 kts | 111° |
| 2026-04-14 00:54 | -7.86920 | 113.54160 | 18519 ft | 458 kts | 111° |
| 2026-04-14 00:55 | -7.88057 | 113.57162 | 18294 ft | 457 kts | 111° |
| 2026-04-14 00:55 | -7.89190 | 113.60154 | 18047 ft | 456 kts | 111° |
| 2026-04-14 00:55 | -7.90319 | 113.63138 | 17970 ft | 455 kts | 111° |
| 2026-04-14 00:55 | -7.91445 | 113.66115 | 17964 ft | 454 kts | 111° |
| 2026-04-14 00:56 | -7.92572 | 113.69092 | 17980 ft | 454 kts | 111° |
| 2026-04-14 00:56 | -7.93696 | 113.72065 | 17978 ft | 453 kts | 111° |
| 2026-04-14 00:56 | -7.94806 | 113.74998 | 17981 ft | 453 kts | 111° |
| 2026-04-14 00:56 | -7.95944 | 113.78009 | 17979 ft | 454 kts | 111° |
| 2026-04-14 00:57 | -7.97069 | 113.80984 | 17982 ft | 454 kts | 111° |
| 2026-04-14 00:57 | -7.98180 | 113.83924 | 17981 ft | 454 kts | 111° |
| 2026-04-14 00:57 | -7.99307 | 113.86907 | 17982 ft | 454 kts | 111° |
| 2026-04-14 00:57 | -8.00434 | 113.89891 | 17983 ft | 454 kts | 111° |
| 2026-04-14 00:58 | -8.01559 | 113.92871 | 17984 ft | 454 kts | 111° |
| 2026-04-14 00:58 | -8.02684 | 113.95850 | 17984 ft | 454 kts | 111° |
| 2026-04-14 00:58 | -8.03807 | 113.98825 | 17979 ft | 454 kts | 111° |
| 2026-04-14 00:58 | -8.04909 | 114.01746 | 17987 ft | 454 kts | 111° |
| 2026-04-14 00:59 | -8.06033 | 114.04727 | 17989 ft | 454 kts | 111° |
| 2026-04-14 00:59 | -8.07157 | 114.07707 | 17988 ft | 454 kts | 111° |
| 2026-04-14 00:59 | -8.08280 | 114.10685 | 17989 ft | 454 kts | 111° |
| 2026-04-14 00:59 | -8.09406 | 114.13671 | 17986 ft | 455 kts | 111° |
| 2026-04-14 01:00 | -8.10529 | 114.16652 | 17988 ft | 455 kts | 111° |
| 2026-04-14 01:00 | -8.11642 | 114.19605 | 17987 ft | 455 kts | 111° |
| 2026-04-14 01:00 | -8.12766 | 114.22589 | 17985 ft | 455 kts | 111° |
| 2026-04-14 01:00 | -8.13892 | 114.25580 | 17992 ft | 455 kts | 111° |
| 2026-04-14 01:01 | -8.15019 | 114.28571 | 18059 ft | 456 kts | 111° |
| 2026-04-14 01:01 | -8.16143 | 114.31557 | 18061 ft | 456 kts | 111° |
| 2026-04-14 01:01 | -8.17270 | 114.34552 | 18064 ft | 455 kts | 111° |
| 2026-04-14 01:01 | -8.18394 | 114.37541 | 18063 ft | 456 kts | 111° |
| 2026-04-14 01:02 | -8.19520 | 114.40536 | 18050 ft | 456 kts | 111° |
| 2026-04-14 01:02 | -8.20648 | 114.43534 | 18051 ft | 457 kts | 111° |
| 2026-04-14 01:02 | -8.21776 | 114.46533 | 18051 ft | 456 kts | 111° |
| 2026-04-14 01:02 | -8.22899 | 114.49523 | 18050 ft | 456 kts | 111° |
| 2026-04-14 01:03 | -8.24165 | 114.52458 | 17954 ft | 456 kts | 118° |
| 2026-04-14 01:03 | -8.25991 | 114.55058 | 17706 ft | 454 kts | 133° |
| 2026-04-14 01:03 | -8.28233 | 114.57301 | 17457 ft | 452 kts | 137° |
| 2026-04-14 01:03 | -8.30548 | 114.59441 | 17211 ft | 449 kts | 138° |
| 2026-04-14 01:04 | -8.32827 | 114.61529 | 16966 ft | 447 kts | 138° |
| 2026-04-14 01:04 | -8.35123 | 114.63640 | 16727 ft | 445 kts | 138° |
| 2026-04-14 01:04 | -8.37396 | 114.65736 | 16479 ft | 442 kts | 138° |
| 2026-04-14 01:04 | -8.39663 | 114.67832 | 16233 ft | 440 kts | 138° |
| 2026-04-14 01:05 | -8.41910 | 114.69912 | 16001 ft | 438 kts | 137° |
| 2026-04-14 01:05 | -8.44144 | 114.72002 | 15755 ft | 436 kts | 136° |
| 2026-04-14 01:05 | -8.46101 | 114.74330 | 15510 ft | 434 kts | 124° |
| 2026-04-14 01:05 | -8.47420 | 114.77068 | 15272 ft | 433 kts | 108° |
| 2026-04-14 01:06 | -8.47963 | 114.80048 | 15057 ft | 432 kts | 94° |
| 2026-04-14 01:06 | -8.48045 | 114.83092 | 14824 ft | 431 kts | 91° |
| 2026-04-14 01:06 | -8.48037 | 114.86113 | 14595 ft | 430 kts | 90° |
| 2026-04-14 01:06 | -8.48024 | 114.89123 | 14367 ft | 428 kts | 90° |
| 2026-04-14 01:07 | -8.48016 | 114.92086 | 14141 ft | 426 kts | 91° |
| 2026-04-14 01:07 | -8.48014 | 114.95059 | 13681 ft | 421 kts | 91° |
| 2026-04-14 01:07 | -8.48015 | 114.98004 | 12968 ft | 419 kts | 91° |
| 2026-04-14 01:07 | -8.48018 | 115.00941 | 12262 ft | 416 kts | 91° |
| 2026-04-14 01:08 | -8.48022 | 115.03848 | 11657 ft | 412 kts | 91° |
| 2026-04-14 01:08 | -8.48027 | 115.06724 | 11221 ft | 404 kts | 91° |
| 2026-04-14 01:08 | -8.48030 | 115.09514 | 10924 ft | 391 kts | 91° |
| 2026-04-14 01:08 | -8.48034 | 115.12235 | 10609 ft | 381 kts | 91° |
| 2026-04-14 01:09 | -8.48037 | 115.14885 | 10292 ft | 372 kts | 91° |
| 2026-04-14 01:09 | -8.48041 | 115.17443 | 10156 ft | 357 kts | 91° |
| 2026-04-14 01:09 | -8.48044 | 115.19875 | 10034 ft | 343 kts | 91° |
| 2026-04-14 01:09 | -8.48047 | 115.22238 | 9913 ft | 330 kts | 91° |
| 2026-04-14 01:10 | -8.48050 | 115.24503 | 9785 ft | 317 kts | 91° |
| 2026-04-14 01:10 | -8.48053 | 115.26689 | 9623 ft | 305 kts | 91° |
| 2026-04-14 01:10 | -8.48056 | 115.28802 | 9458 ft | 295 kts | 91° |
| 2026-04-14 01:10 | -8.48058 | 115.30862 | 9146 ft | 291 kts | 91° |
| 2026-04-14 01:11 | -8.48061 | 115.32901 | 8750 ft | 290 kts | 91° |
| 2026-04-14 01:11 | -8.48068 | 115.34933 | 8387 ft | 288 kts | 92° |
| 2026-04-14 01:11 | -8.48364 | 115.36912 | 8036 ft | 284 kts | 110° |
| 2026-04-14 01:11 | -8.49372 | 115.38572 | 7634 ft | 283 kts | 136° |
| 2026-04-14 01:12 | -8.51027 | 115.39609 | 7240 ft | 283 kts | 161° |
| 2026-04-14 01:12 | -8.52975 | 115.39892 | 6915 ft | 282 kts | 176° |
| 2026-04-14 01:12 | -8.54931 | 115.39900 | 6783 ft | 273 kts | 179° |
| 2026-04-14 01:12 | -8.56808 | 115.39877 | 6549 ft | 268 kts | 178° |
| 2026-04-14 01:13 | -8.58667 | 115.39856 | 6223 ft | 267 kts | 178° |
| 2026-04-14 01:13 | -8.60494 | 115.39845 | 5805 ft | 265 kts | 177° |
| 2026-04-14 01:13 | -8.62305 | 115.39838 | 5495 ft | 255 kts | 177° |
| 2026-04-14 01:13 | -8.64104 | 115.39835 | 5115 ft | 261 kts | 176° |
| 2026-04-14 01:14 | -8.65919 | 115.39835 | 4903 ft | 261 kts | 176° |
| 2026-04-14 01:14 | -8.67745 | 115.39834 | 4702 ft | 261 kts | 176° |
| 2026-04-14 01:14 | -8.69554 | 115.39833 | 4512 ft | 260 kts | 177° |
| 2026-04-14 01:14 | -8.71349 | 115.39642 | 4314 ft | 263 kts | 194° |
| 2026-04-14 01:15 | -8.72888 | 115.38648 | 3951 ft | 268 kts | 229° |
| 2026-04-14 01:15 | -8.73805 | 115.37019 | 3507 ft | 271 kts | 248° |
| 2026-04-14 01:15 | -8.74204 | 115.35166 | 3162 ft | 270 kts | 266° |
| 2026-04-14 01:15 | -8.74217 | 115.33275 | 2792 ft | 268 kts | 270° |
| 2026-04-14 01:16 | -8.74238 | 115.31388 | 2480 ft | 268 kts | 267° |
| 2026-04-14 01:16 | -8.74333 | 115.29514 | 2155 ft | 266 kts | 267° |
| 2026-04-14 01:16 | -8.74414 | 115.27649 | 1821 ft | 264 kts | 267° |
| 2026-04-14 01:16 | -8.74482 | 115.25805 | 1481 ft | 261 kts | 267° |
| 2026-04-14 01:18 | -8.75149 | 115.13180 | 2052 ft | 294 kts | 264° |
| 2026-04-14 01:18 | -8.75748 | 115.11078 | 2091 ft | 333 kts | 238° |
| 2026-04-14 01:19 | -8.77396 | 115.09319 | 2327 ft | 358 kts | 210° |
| 2026-04-14 01:19 | -8.79721 | 115.08485 | 3311 ft | 353 kts | 184° |
| 2026-04-14 01:19 | -8.82113 | 115.08720 | 4556 ft | 346 kts | 161° |
| 2026-04-14 01:19 | -8.84248 | 115.09837 | 4981 ft | 350 kts | 140° |
| 2026-04-14 01:20 | -8.85727 | 115.11648 | 4990 ft | 322 kts | 114° |
| 2026-04-14 01:20 | -8.86338 | 115.13747 | 4987 ft | 302 kts | 97° |
| 2026-04-14 01:20 | -8.86436 | 115.15803 | 4983 ft | 284 kts | 90° |
| 2026-04-14 01:20 | -8.86210 | 115.17713 | 4979 ft | 267 kts | 71° |
| 2026-04-14 01:21 | -8.85222 | 115.19222 | 5037 ft | 253 kts | 41° |
| 2026-04-14 01:21 | -8.83727 | 115.20140 | 5346 ft | 255 kts | 28° |
| 2026-04-14 01:21 | -8.82080 | 115.20881 | 5781 ft | 262 kts | 26° |
| 2026-04-14 01:21 | -8.80400 | 115.21604 | 5967 ft | 263 kts | 26° |
| 2026-04-14 01:22 | -8.78714 | 115.22333 | 5994 ft | 263 kts | 26° |
| 2026-04-14 01:22 | -8.77028 | 115.23058 | 5993 ft | 263 kts | 26° |
| 2026-04-14 01:22 | -8.75912 | 115.23538 | 5991 ft | 263 kts | 26° |
| 2026-04-14 01:22 | -8.73661 | 115.24507 | 5991 ft | 263 kts | 26° |
| 2026-04-14 01:23 | -8.72543 | 115.24989 | 5994 ft | 263 kts | 26° |
| 2026-04-14 01:23 | -8.70317 | 115.25950 | 5994 ft | 263 kts | 26° |
| 2026-04-14 01:23 | -8.68630 | 115.26678 | 5996 ft | 263 kts | 26° |
| 2026-04-14 01:23 | -8.66947 | 115.27404 | 5989 ft | 263 kts | 26° |
| 2026-04-14 01:24 | -8.65808 | 115.27898 | 5991 ft | 263 kts | 27° |
| 2026-04-14 01:24 | -8.64334 | 115.28935 | 5989 ft | 257 kts | 52° |
| 2026-04-14 01:24 | -8.63562 | 115.30493 | 5993 ft | 252 kts | 81° |
| 2026-04-14 01:24 | -8.63656 | 115.32230 | 5982 ft | 251 kts | 109° |
| 2026-04-14 01:25 | -8.64459 | 115.33805 | 5983 ft | 254 kts | 116° |
| 2026-04-14 01:25 | -8.64952 | 115.35497 | 5983 ft | 252 kts | 97° |
| 2026-04-14 01:25 | -8.65072 | 115.37264 | 5979 ft | 253 kts | 90° |
| 2026-04-14 01:25 | -8.65051 | 115.39044 | 5981 ft | 253 kts | 89° |
| 2026-04-14 01:26 | -8.65005 | 115.40827 | 5980 ft | 253 kts | 89° |
| 2026-04-14 01:26 | -8.64959 | 115.42608 | 5982 ft | 253 kts | 89° |
| 2026-04-14 01:26 | -8.64910 | 115.44386 | 5984 ft | 253 kts | 89° |
| 2026-04-14 01:26 | -8.64861 | 115.46165 | 5981 ft | 253 kts | 89° |
| 2026-04-14 01:27 | -8.64812 | 115.47943 | 5984 ft | 253 kts | 89° |
| 2026-04-14 01:27 | -8.64764 | 115.49700 | 5985 ft | 254 kts | 89° |
| 2026-04-14 01:27 | -8.64713 | 115.51481 | 5985 ft | 253 kts | 89° |
| 2026-04-14 01:27 | -8.64705 | 115.53262 | 5983 ft | 253 kts | 95° |
| 2026-04-14 01:28 | -8.65018 | 115.54996 | 5986 ft | 249 kts | 105° |
| 2026-04-14 01:28 | -8.65529 | 115.56673 | 5991 ft | 251 kts | 107° |
| 2026-04-14 01:28 | -8.66063 | 115.58366 | 5987 ft | 253 kts | 104° |
| 2026-04-14 01:28 | -8.66612 | 115.60053 | 5976 ft | 254 kts | 120° |
| 2026-04-14 01:29 | -8.67856 | 115.61292 | 5985 ft | 255 kts | 149° |
| 2026-04-14 01:29 | -8.69565 | 115.61815 | 5984 ft | 261 kts | 175° |
| 2026-04-14 01:29 | -8.71348 | 115.61539 | 5991 ft | 267 kts | 195° |
| 2026-04-14 01:29 | -8.73063 | 115.60796 | 5983 ft | 271 kts | 209° |
| 2026-04-14 01:30 | -8.74462 | 115.59510 | 5985 ft | 275 kts | 235° |
| 2026-04-14 01:30 | -8.75100 | 115.57706 | 5981 ft | 276 kts | 267° |
| 2026-04-14 01:30 | -8.74713 | 115.55832 | 5989 ft | 275 kts | 301° |
| 2026-04-14 01:30 | -8.73578 | 115.54280 | 5992 ft | 276 kts | 313° |
| 2026-04-14 01:31 | -8.72121 | 115.53041 | 5984 ft | 273 kts | 335° |
| 2026-04-14 01:31 | -8.70327 | 115.52552 | 5987 ft | 264 kts | 4° |
| 2026-04-14 01:31 | -8.68505 | 115.52747 | 5995 ft | 264 kts | 13° |
| 2026-04-14 01:31 | -8.66700 | 115.53112 | 5988 ft | 265 kts | 15° |
| 2026-04-14 01:32 | -8.64893 | 115.53516 | 5984 ft | 265 kts | 15° |
| 2026-04-14 01:32 | -8.63119 | 115.53919 | 5983 ft | 265 kts | 15° |
| 2026-04-14 01:32 | -8.61313 | 115.54330 | 5989 ft | 265 kts | 15° |
| 2026-04-14 01:32 | -8.59515 | 115.54739 | 5992 ft | 265 kts | 15° |
| 2026-04-14 01:33 | -8.57714 | 115.55149 | 5991 ft | 265 kts | 15° |
| 2026-04-14 01:33 | -8.55909 | 115.55560 | 5993 ft | 266 kts | 15° |
| 2026-04-14 01:33 | -8.54107 | 115.55969 | 5993 ft | 266 kts | 14° |
| 2026-04-14 01:33 | -8.52296 | 115.56381 | 5992 ft | 267 kts | 15° |
| 2026-04-14 01:34 | -8.50589 | 115.57052 | 5992 ft | 262 kts | 38° |
| 2026-04-14 01:34 | -8.49412 | 115.58407 | 5993 ft | 257 kts | 66° |
| 2026-04-14 01:34 | -8.49047 | 115.60123 | 5991 ft | 254 kts | 94° |
| 2026-04-14 01:34 | -8.49498 | 115.61842 | 5995 ft | 255 kts | 112° |
| 2026-04-14 01:35 | -8.50348 | 115.63419 | 5992 ft | 258 kts | 127° |
| 2026-04-14 01:35 | -8.51687 | 115.64634 | 5878 ft | 261 kts | 151° |
| 2026-04-14 01:35 | -8.53430 | 115.65086 | 5640 ft | 262 kts | 181° |
| 2026-04-14 01:35 | -8.55166 | 115.64578 | 5395 ft | 265 kts | 211° |
| 2026-04-14 01:36 | -8.56511 | 115.63295 | 5167 ft | 271 kts | 228° |
| 2026-04-14 01:36 | -8.57670 | 115.61765 | 4935 ft | 274 kts | 231° |
| 2026-04-14 01:36 | -8.58785 | 115.60220 | 4795 ft | 267 kts | 232° |
| 2026-04-14 01:36 | -8.59863 | 115.58732 | 4647 ft | 258 kts | 231° |
| 2026-04-14 01:37 | -8.60913 | 115.57301 | 4447 ft | 255 kts | 231° |
| 2026-04-14 01:37 | -8.61970 | 115.55870 | 4319 ft | 253 kts | 230° |
| 2026-04-14 01:37 | -8.63023 | 115.54452 | 4194 ft | 252 kts | 230° |
| 2026-04-14 01:37 | -8.64070 | 115.53045 | 4108 ft | 248 kts | 230° |
| 2026-04-14 01:38 | -8.66151 | 115.50253 | 3871 ft | 249 kts | 230° |
| 2026-04-14 01:38 | -8.67196 | 115.48853 | 3751 ft | 249 kts | 230° |
| 2026-04-14 01:38 | -8.68239 | 115.47454 | 3640 ft | 248 kts | 230° |
| 2026-04-14 01:39 | -8.69279 | 115.46060 | 3517 ft | 248 kts | 231° |
| 2026-04-14 01:39 | -8.70306 | 115.44681 | 3402 ft | 240 kts | 230° |
| 2026-04-14 01:39 | -8.71267 | 115.43385 | 3260 ft | 227 kts | 230° |
| 2026-04-14 01:39 | -8.72184 | 115.42152 | 3112 ft | 213 kts | 230° |
| 2026-04-14 01:40 | -8.73055 | 115.40963 | 3008 ft | 211 kts | 233° |
| 2026-04-14 01:40 | -8.73736 | 115.39636 | 2993 ft | 214 kts | 250° |
| 2026-04-14 01:40 | -8.74007 | 115.38167 | 2981 ft | 211 kts | 266° |
| 2026-04-14 01:40 | -8.74056 | 115.36690 | 2977 ft | 209 kts | 268° |
| 2026-04-14 01:41 | -8.74103 | 115.35263 | 3014 ft | 198 kts | 268° |
| 2026-04-14 01:41 | -8.74154 | 115.33886 | 2977 ft | 195 kts | 267° |
| 2026-04-14 01:41 | -8.74213 | 115.32516 | 2758 ft | 196 kts | 266° |
| 2026-04-14 01:41 | -8.74271 | 115.31142 | 2491 ft | 195 kts | 267° |
| 2026-04-14 01:42 | -8.74324 | 115.29783 | 2216 ft | 191 kts | 267° |
| 2026-04-14 01:42 | -8.74377 | 115.28459 | 1954 ft | 183 kts | 268° |
| 2026-04-14 01:42 | -8.74426 | 115.27216 | 1731 ft | 172 kts | 267° |
| 2026-04-14 01:42 | -8.74474 | 115.26028 | 1522 ft | 171 kts | 266° |
| 2026-04-14 01:43 | -8.74521 | 115.24832 | 1302 ft | 170 kts | 266° |
| 2026-04-14 01:43 | -8.74568 | 115.23645 | 1073 ft | 167 kts | 266° |
| 2026-04-14 01:43 | -8.74614 | 115.22481 | 875 ft | 164 kts | 266° |
| 2026-04-14 01:43 | -8.74660 | 115.21328 | 669 ft | 164 kts | 266° |
| 2026-04-14 01:44 | -8.74707 | 115.20169 | 459 ft | 165 kts | 267° |
| 2026-04-14 01:44 | -8.74752 | 115.19017 | 243 ft | 162 kts | 265° |
| 2026-04-14 01:44 | -8.74794 | 115.17887 | 51 ft | 160 kts | 266° |
| 2026-04-14 01:44 | -8.74843 | 115.16848 | 26 ft | 132 kts | 267° |
| 2026-04-14 01:45 | -8.74865 | 115.16270 | 22 ft | 53 kts | 267° |
| 2026-04-14 01:45 | -8.74857 | 115.15954 | 23 ft | 40 kts | 288° |
| 2026-04-14 01:45 | -8.74788 | 115.15798 | 21 ft | 4 kts | 299° |
| 2026-04-14 01:45 | -8.74788 | 115.15797 | 21 ft | 0 kts | 299° |
| 2026-04-14 01:46 | -8.74784 | 115.15791 | 21 ft | 2 kts | 302° |
| 2026-04-14 01:46 | -8.74770 | 115.15782 | 21 ft | 3 kts | 335° |
| 2026-04-14 01:47 | -8.74743 | 115.15776 | 21 ft | 6 kts | 359° |
| 2026-04-14 01:47 | -8.74714 | 115.15808 | 21 ft | 7 kts | 83° |
| 2026-04-14 01:47 | -8.74713 | 115.15848 | 22 ft | 5 kts | 89° |
| 2026-04-14 01:47 | -8.74712 | 115.15878 | 22 ft | 4 kts | 87° |
| 2026-04-14 01:48 | -8.74711 | 115.15901 | 24 ft | 3 kts | 87° |
| 2026-04-14 01:48 | -8.74710 | 115.15916 | 22 ft | 2 kts | 87° |
| 2026-04-14 01:48 | -8.74710 | 115.15924 | 22 ft | 1 kts | 87° |
| 2026-04-14 01:48 | -8.74709 | 115.15934 | 22 ft | 3 kts | 87° |
| 2026-04-14 01:49 | -8.74708 | 115.15966 | 22 ft | 6 kts | 88° |
| 2026-04-14 01:49 | -8.74707 | 115.16021 | 22 ft | 9 kts | 89° |
| 2026-04-14 01:49 | -8.74705 | 115.16097 | 22 ft | 12 kts | 88° |
| 2026-04-14 01:49 | -8.74701 | 115.16190 | 24 ft | 14 kts | 86° |
| 2026-04-14 01:50 | -8.74694 | 115.16287 | 23 ft | 13 kts | 83° |
| 2026-04-14 01:50 | -8.74687 | 115.16377 | 23 ft | 12 kts | 88° |
| 2026-04-14 01:50 | -8.74685 | 115.16426 | 26 ft | 0 kts | 77° |
| 2026-04-14 01:51 | -8.74683 | 115.16428 | 25 ft | 1 kts | 47° |
| 2026-04-14 01:51 | -8.74677 | 115.16426 | 24 ft | 1 kts | 341° |
| 2026-04-14 01:51 | -8.74660 | 115.16415 | 23 ft | 6 kts | 334° |
| 2026-04-14 01:52 | -8.74621 | 115.16406 | 25 ft | 5 kts | 358° |
| 2026-04-14 01:52 | -8.74591 | 115.16406 | 24 ft | 4 kts | 358° |
| 2026-04-14 01:52 | -8.74570 | 115.16405 | 24 ft | 1 kts | 358° |
| 2026-04-14 01:52 | -8.74568 | 115.16405 | 25 ft | 0 kts | 356° |